Weather at Fayetteville Regional Airport - Grannis Field

Public forecast

Using degrees Fahrenheit for public forecast. Weather courtesy of forecast.io.

Current aviation weather report (METAR) for Fayetteville Regional Airport - Grannis Field

Retrieved 2021/04/17 20:53 UTC (32 minutes ago):

KFAY 172053Z 19005KT 10SM FEW100 21/04 A2980 RMK AO2 SLP085 T02110044 56019

Aviation forecast (TAF) for Fayetteville Regional Airport - Grannis Field

Retrieved 2021/04/17 18:22 UTC (3 hours ago):

TAF KFAY 171720Z 1718/1818 23005KT P6SM BKN080 FM181200 34003KT P6SM SCT100